Terminal Aerodrome Forecast
Issued by NWS Wilmington, OH

Current Version | Previous Version | Text Only | Print | Product List | Glossary Off
Versions: 1 2 3 4 5 6 7 8 9 10 11 12 13 14 15 16 17 18 19 20 21 22 23 24 25 26 27 28 29 30 31

137
FTUS41 KILN 282335
TAFDAY
TAF
KDAY 282335Z 2900/2924 01011KT 6SM BR SCT050 BKN060 BKN100
     FM290300 36005KT 5SM BR OVC022
     FM290700 33004KT 3SM BR OVC005
     FM291400 30007KT P6SM BKN015=

USA.gov is the U.S. government's official web portal to all federal, state and local government web resources and services.